sensor_id;sensor_type;location;lat;lon;timestamp;P1;durP1;ratioP1;P2;durP2;ratioP2
11675;SDS011;5894;42.768;23.404;2023-11-18T00:00:55;1.13;;;1.03;;
11675;SDS011;5894;42.768;23.404;2023-11-18T00:03:23;0.93;;;0.80;;
11675;SDS011;5894;42.768;23.404;2023-11-18T00:05:50;0.97;;;0.97;;
11675;SDS011;5894;42.768;23.404;2023-11-18T00:08:18;0.90;;;0.90;;
11675;SDS011;5894;42.768;23.404;2023-11-18T00:10:45;1.07;;;0.97;;
11675;SDS011;5894;42.768;23.404;2023-11-18T00:13:14;0.80;;;0.80;;
11675;SDS011;5894;42.768;23.404;2023-11-18T00:15:41;2.00;;;0.90;;
11675;SDS011;5894;42.768;23.404;2023-11-18T00:18:08;2.43;;;0.80;;
11675;SDS011;5894;42.768;23.404;2023-11-18T00:20:35;0.70;;;0.70;;
11675;SDS011;5894;42.768;23.404;2023-11-18T00:23:02;0.80;;;0.80;;
11675;SDS011;5894;42.768;23.404;2023-11-18T00:25:30;0.90;;;0.80;;
11675;SDS011;5894;42.768;23.404;2023-11-18T00:27:57;0.80;;;0.80;;
11675;SDS011;5894;42.768;23.404;2023-11-18T00:30:25;0.70;;;0.70;;
11675;SDS011;5894;42.768;23.404;2023-11-18T00:32:53;0.80;;;0.70;;
11675;SDS011;5894;42.768;23.404;2023-11-18T00:35:20;1.00;;;0.90;;
11675;SDS011;5894;42.768;23.404;2023-11-18T00:37:48;2.67;;;1.20;;
11675;SDS011;5894;42.768;23.404;2023-11-18T00:40:15;2.17;;;1.07;;
11675;SDS011;5894;42.768;23.404;2023-11-18T00:42:43;1.13;;;1.03;;
11675;SDS011;5894;42.768;23.404;2023-11-18T00:45:10;1.63;;;1.27;;
11675;SDS011;5894;42.768;23.404;2023-11-18T00:47:40;2.40;;;1.10;;
11675;SDS011;5894;42.768;23.404;2023-11-18T00:50:07;1.40;;;1.20;;
11675;SDS011;5894;42.768;23.404;2023-11-18T00:52:35;1.17;;;1.17;;
11675;SDS011;5894;42.768;23.404;2023-11-18T00:55:04;1.30;;;1.20;;
11675;SDS011;5894;42.768;23.404;2023-11-18T00:57:32;1.13;;;1.10;;
11675;SDS011;5894;42.768;23.404;2023-11-18T00:59:59;1.57;;;1.37;;
11675;SDS011;5894;42.768;23.404;2023-11-18T01:02:27;1.53;;;1.20;;
11675;SDS011;5894;42.768;23.404;2023-11-18T01:04:56;1.97;;;1.30;;
11675;SDS011;5894;42.768;23.404;2023-11-18T01:07:23;1.47;;;1.37;;
11675;SDS011;5894;42.768;23.404;2023-11-18T01:09:50;1.20;;;1.10;;
11675;SDS011;5894;42.768;23.404;2023-11-18T01:12:17;1.30;;;1.20;;
11675;SDS011;5894;42.768;23.404;2023-11-18T01:14:44;1.30;;;1.20;;
11675;SDS011;5894;42.768;23.404;2023-11-18T01:17:11;1.27;;;1.17;;
11675;SDS011;5894;42.768;23.404;2023-11-18T01:19:39;1.10;;;1.10;;
11675;SDS011;5894;42.768;23.404;2023-11-18T01:22:07;1.30;;;1.20;;
11675;SDS011;5894;42.768;23.404;2023-11-18T01:24:34;1.20;;;1.10;;
11675;SDS011;5894;42.768;23.404;2023-11-18T01:27:01;1.33;;;1.23;;
11675;SDS011;5894;42.768;23.404;2023-11-18T01:29:28;1.40;;;1.30;;
11675;SDS011;5894;42.768;23.404;2023-11-18T01:31:56;1.50;;;1.40;;
11675;SDS011;5894;42.768;23.404;2023-11-18T01:34:23;1.50;;;1.40;;
11675;SDS011;5894;42.768;23.404;2023-11-18T01:36:51;3.67;;;1.50;;
11675;SDS011;5894;42.768;23.404;2023-11-18T01:39:19;1.60;;;1.50;;
11675;SDS011;5894;42.768;23.404;2023-11-18T01:41:46;1.77;;;1.67;;
11675;SDS011;5894;42.768;23.404;2023-11-18T01:44:14;1.70;;;1.60;;
11675;SDS011;5894;42.768;23.404;2023-11-18T01:46:42;1.60;;;1.50;;
11675;SDS011;5894;42.768;23.404;2023-11-18T01:49:11;2.57;;;1.60;;
11675;SDS011;5894;42.768;23.404;2023-11-18T01:51:39;2.70;;;1.60;;
11675;SDS011;5894;42.768;23.404;2023-11-18T01:54:07;1.80;;;1.70;;
11675;SDS011;5894;42.768;23.404;2023-11-18T01:56:41;2.03;;;1.83;;
11675;SDS011;5894;42.768;23.404;2023-11-18T01:59:12;2.90;;;1.80;;
11675;SDS011;5894;42.768;23.404;2023-11-18T02:01:44;1.67;;;1.57;;
11675;SDS011;5894;42.768;23.404;2023-11-18T02:04:13;2.00;;;1.90;;
11675;SDS011;5894;42.768;23.404;2023-11-18T02:06:41;1.80;;;1.70;;
11675;SDS011;5894;42.768;23.404;2023-11-18T02:09:10;1.50;;;1.40;;
11675;SDS011;5894;42.768;23.404;2023-11-18T02:11:39;1.77;;;1.60;;
11675;SDS011;5894;42.768;23.404;2023-11-18T02:14:16;1.60;;;1.50;;
11675;SDS011;5894;42.768;23.404;2023-11-18T02:16:48;1.80;;;1.70;;
11675;SDS011;5894;42.768;23.404;2023-11-18T02:19:19;1.60;;;1.50;;
11675;SDS011;5894;42.768;23.404;2023-11-18T02:21:47;1.50;;;1.40;;
11675;SDS011;5894;42.768;23.404;2023-11-18T02:24:26;1.70;;;1.60;;
11675;SDS011;5894;42.768;23.404;2023-11-18T02:26:58;1.70;;;1.60;;
11675;SDS011;5894;42.768;23.404;2023-11-18T02:29:26;1.67;;;1.57;;
11675;SDS011;5894;42.768;23.404;2023-11-18T02:32:03;1.97;;;1.77;;
11675;SDS011;5894;42.768;23.404;2023-11-18T02:34:35;1.87;;;1.60;;
11675;SDS011;5894;42.768;23.404;2023-11-18T02:37:08;2.07;;;1.87;;
11675;SDS011;5894;42.768;23.404;2023-11-18T02:39:39;1.73;;;1.63;;
11675;SDS011;5894;42.768;23.404;2023-11-18T02:42:10;1.80;;;1.70;;
11675;SDS011;5894;42.768;23.404;2023-11-18T02:44:39;2.00;;;1.80;;
11675;SDS011;5894;42.768;23.404;2023-11-18T02:47:07;2.47;;;2.00;;
11675;SDS011;5894;42.768;23.404;2023-11-18T02:49:35;2.30;;;2.10;;
11675;SDS011;5894;42.768;23.404;2023-11-18T02:52:02;2.07;;;1.93;;
11675;SDS011;5894;42.768;23.404;2023-11-18T02:54:30;2.10;;;2.00;;
11675;SDS011;5894;42.768;23.404;2023-11-18T02:56:58;2.17;;;1.90;;
11675;SDS011;5894;42.768;23.404;2023-11-18T02:59:26;2.13;;;2.00;;
11675;SDS011;5894;42.768;23.404;2023-11-18T03:01:55;2.37;;;2.17;;
11675;SDS011;5894;42.768;23.404;2023-11-18T03:04:23;2.80;;;2.57;;
11675;SDS011;5894;42.768;23.404;2023-11-18T03:06:50;2.53;;;2.33;;
11675;SDS011;5894;42.768;23.404;2023-11-18T03:09:17;2.60;;;2.40;;
11675;SDS011;5894;42.768;23.404;2023-11-18T03:11:45;3.10;;;2.50;;
11675;SDS011;5894;42.768;23.404;2023-11-18T03:14:11;2.93;;;2.50;;
11675;SDS011;5894;42.768;23.404;2023-11-18T03:16:40;2.97;;;2.53;;
11675;SDS011;5894;42.768;23.404;2023-11-18T03:19:07;2.60;;;2.40;;
11675;SDS011;5894;42.768;23.404;2023-11-18T03:21:34;3.17;;;2.70;;
11675;SDS011;5894;42.768;23.404;2023-11-18T03:24:02;2.90;;;2.50;;
11675;SDS011;5894;42.768;23.404;2023-11-18T03:26:29;2.50;;;2.30;;
11675;SDS011;5894;42.768;23.404;2023-11-18T03:28:57;2.87;;;2.67;;
11675;SDS011;5894;42.768;23.404;2023-11-18T03:31:24;2.70;;;2.50;;
11675;SDS011;5894;42.768;23.404;2023-11-18T03:33:53;3.50;;;2.50;;
11675;SDS011;5894;42.768;23.404;2023-11-18T03:36:20;2.30;;;2.10;;
11675;SDS011;5894;42.768;23.404;2023-11-18T03:38:47;3.43;;;2.70;;
11675;SDS011;5894;42.768;23.404;2023-11-18T03:41:15;2.57;;;2.37;;
11675;SDS011;5894;42.768;23.404;2023-11-18T03:43:42;3.07;;;2.77;;
11675;SDS011;5894;42.768;23.404;2023-11-18T03:46:10;2.60;;;2.40;;
11675;SDS011;5894;42.768;23.404;2023-11-18T03:48:37;2.53;;;2.33;;
11675;SDS011;5894;42.768;23.404;2023-11-18T03:51:06;2.43;;;2.23;;
11675;SDS011;5894;42.768;23.404;2023-11-18T03:53:33;3.33;;;2.50;;
11675;SDS011;5894;42.768;23.404;2023-11-18T03:56:00;3.13;;;2.40;;
11675;SDS011;5894;42.768;23.404;2023-11-18T03:58:28;2.50;;;2.30;;
11675;SDS011;5894;42.768;23.404;2023-11-18T04:00:58;3.17;;;2.30;;
11675;SDS011;5894;42.768;23.404;2023-11-18T04:03:25;3.00;;;2.50;;
11675;SDS011;5894;42.768;23.404;2023-11-18T04:05:52;2.70;;;2.50;;
11675;SDS011;5894;42.768;23.404;2023-11-18T04:08:20;4.17;;;3.50;;
11675;SDS011;5894;42.768;23.404;2023-11-18T04:10:47;3.50;;;3.20;;
11675;SDS011;5894;42.768;23.404;2023-11-18T04:13:14;3.30;;;3.00;;
11675;SDS011;5894;42.768;23.404;2023-11-18T04:15:41;3.10;;;2.80;;
11675;SDS011;5894;42.768;23.404;2023-11-18T04:18:10;3.50;;;3.10;;
11675;SDS011;5894;42.768;23.404;2023-11-18T04:20:37;2.70;;;2.50;;
11675;SDS011;5894;42.768;23.404;2023-11-18T04:23:04;3.00;;;2.70;;
11675;SDS011;5894;42.768;23.404;2023-11-18T04:25:33;2.70;;;2.50;;
11675;SDS011;5894;42.768;23.404;2023-11-18T04:28:00;2.80;;;2.60;;
11675;SDS011;5894;42.768;23.404;2023-11-18T04:30:27;2.80;;;2.50;;
11675;SDS011;5894;42.768;23.404;2023-11-18T04:32:54;2.43;;;2.23;;
11675;SDS011;5894;42.768;23.404;2023-11-18T04:35:21;3.03;;;2.50;;
11675;SDS011;5894;42.768;23.404;2023-11-18T04:37:49;2.83;;;2.63;;
11675;SDS011;5894;42.768;23.404;2023-11-18T04:40:16;3.00;;;2.70;;
11675;SDS011;5894;42.768;23.404;2023-11-18T04:42:45;3.13;;;2.57;;
11675;SDS011;5894;42.768;23.404;2023-11-18T04:45:12;3.33;;;2.50;;
11675;SDS011;5894;42.768;23.404;2023-11-18T04:47:39;2.47;;;2.27;;
11675;SDS011;5894;42.768;23.404;2023-11-18T04:50:09;2.70;;;2.50;;
11675;SDS011;5894;42.768;23.404;2023-11-18T04:52:37;2.73;;;2.50;;
11675;SDS011;5894;42.768;23.404;2023-11-18T04:55:04;3.60;;;2.40;;
11675;SDS011;5894;42.768;23.404;2023-11-18T04:57:32;3.10;;;2.80;;
11675;SDS011;5894;42.768;23.404;2023-11-18T05:00:00;2.90;;;2.57;;
11675;SDS011;5894;42.768;23.404;2023-11-18T05:02:35;2.90;;;2.60;;
11675;SDS011;5894;42.768;23.404;2023-11-18T05:05:02;2.67;;;2.30;;
11675;SDS011;5894;42.768;23.404;2023-11-18T05:07:31;2.70;;;2.50;;
11675;SDS011;5894;42.768;23.404;2023-11-18T05:09:58;4.27;;;2.50;;
11675;SDS011;5894;42.768;23.404;2023-11-18T05:12:25;2.83;;;2.50;;
11675;SDS011;5894;42.768;23.404;2023-11-18T05:14:54;2.40;;;2.20;;
11675;SDS011;5894;42.768;23.404;2023-11-18T05:17:23;2.40;;;2.20;;
11675;SDS011;5894;42.768;23.404;2023-11-18T05:19:51;2.60;;;2.40;;
11675;SDS011;5894;42.768;23.404;2023-11-18T05:22:18;2.43;;;2.23;;
11675;SDS011;5894;42.768;23.404;2023-11-18T05:24:45;2.30;;;2.10;;
11675;SDS011;5894;42.768;23.404;2023-11-18T05:27:13;2.40;;;2.20;;
11675;SDS011;5894;42.768;23.404;2023-11-18T05:29:40;2.37;;;2.17;;
11675;SDS011;5894;42.768;23.404;2023-11-18T05:32:07;2.37;;;2.10;;
11675;SDS011;5894;42.768;23.404;2023-11-18T05:34:36;2.30;;;2.10;;
11675;SDS011;5894;42.768;23.404;2023-11-18T05:37:03;2.20;;;2.00;;
11675;SDS011;5894;42.768;23.404;2023-11-18T05:39:30;2.13;;;1.93;;
11675;SDS011;5894;42.768;23.404;2023-11-18T05:41:58;1.80;;;1.70;;
11675;SDS011;5894;42.768;23.404;2023-11-18T05:44:26;2.10;;;1.90;;
11675;SDS011;5894;42.768;23.404;2023-11-18T05:46:56;1.57;;;1.47;;
11675;SDS011;5894;42.768;23.404;2023-11-18T05:49:26;1.80;;;1.60;;
11675;SDS011;5894;42.768;23.404;2023-11-18T05:51:55;3.50;;;1.87;;
11675;SDS011;5894;42.768;23.404;2023-11-18T05:54:22;2.20;;;1.97;;
11675;SDS011;5894;42.768;23.404;2023-11-18T05:56:49;2.07;;;1.87;;
11675;SDS011;5894;42.768;23.404;2023-11-18T05:59:16;2.07;;;1.87;;
11675;SDS011;5894;42.768;23.404;2023-11-18T06:01:43;1.70;;;1.60;;
11675;SDS011;5894;42.768;23.404;2023-11-18T06:04:13;1.90;;;1.70;;
11675;SDS011;5894;42.768;23.404;2023-11-18T06:06:40;1.80;;;1.70;;
11675;SDS011;5894;42.768;23.404;2023-11-18T06:09:10;1.60;;;1.50;;
11675;SDS011;5894;42.768;23.404;2023-11-18T06:11:45;1.70;;;1.40;;
11675;SDS011;5894;42.768;23.404;2023-11-18T06:14:14;1.50;;;1.40;;
11675;SDS011;5894;42.768;23.404;2023-11-18T06:16:42;1.50;;;1.40;;
11675;SDS011;5894;42.768;23.404;2023-11-18T06:19:09;2.07;;;1.40;;
11675;SDS011;5894;42.768;23.404;2023-11-18T06:21:36;1.50;;;1.40;;
11675;SDS011;5894;42.768;23.404;2023-11-18T06:24:03;1.53;;;1.40;;
11675;SDS011;5894;42.768;23.404;2023-11-18T06:26:32;2.90;;;1.80;;
11675;SDS011;5894;42.768;23.404;2023-11-18T06:29:01;2.37;;;1.50;;
11675;SDS011;5894;42.768;23.404;2023-11-18T06:31:29;1.53;;;1.30;;
11675;SDS011;5894;42.768;23.404;2023-11-18T06:33:56;2.97;;;1.60;;
11675;SDS011;5894;42.768;23.404;2023-11-18T06:36:23;2.30;;;1.93;;
11675;SDS011;5894;42.768;23.404;2023-11-18T06:38:52;1.80;;;1.60;;
11675;SDS011;5894;42.768;23.404;2023-11-18T06:41:21;2.00;;;1.80;;
11675;SDS011;5894;42.768;23.404;2023-11-18T06:43:52;1.97;;;1.70;;
11675;SDS011;5894;42.768;23.404;2023-11-18T06:46:26;1.63;;;1.53;;
11675;SDS011;5894;42.768;23.404;2023-11-18T06:48:57;1.40;;;1.30;;
11675;SDS011;5894;42.768;23.404;2023-11-18T06:51:25;1.40;;;1.27;;
11675;SDS011;5894;42.768;23.404;2023-11-18T06:53:52;1.20;;;1.10;;
11675;SDS011;5894;42.768;23.404;2023-11-18T06:56:20;3.20;;;1.10;;
11675;SDS011;5894;42.768;23.404;2023-11-18T06:58:47;1.13;;;1.00;;
11675;SDS011;5894;42.768;23.404;2023-11-18T07:01:16;1.63;;;1.00;;
11675;SDS011;5894;42.768;23.404;2023-11-18T07:03:43;1.10;;;1.00;;
11675;SDS011;5894;42.768;23.404;2023-11-18T07:06:16;1.10;;;1.00;;
11675;SDS011;5894;42.768;23.404;2023-11-18T07:08:47;1.30;;;0.97;;
11675;SDS011;5894;42.768;23.404;2023-11-18T07:11:14;1.27;;;0.93;;
11675;SDS011;5894;42.768;23.404;2023-11-18T07:13:41;0.90;;;0.90;;
11675;SDS011;5894;42.768;23.404;2023-11-18T07:16:08;2.23;;;1.00;;
11675;SDS011;5894;42.768;23.404;2023-11-18T07:18:37;0.93;;;0.90;;
11675;SDS011;5894;42.768;23.404;2023-11-18T07:21:05;1.30;;;1.10;;
11675;SDS011;5894;42.768;23.404;2023-11-18T07:23:32;0.97;;;0.97;;
11675;SDS011;5894;42.768;23.404;2023-11-18T07:25:59;1.20;;;1.10;;
11675;SDS011;5894;42.768;23.404;2023-11-18T07:28:27;2.13;;;1.10;;
11675;SDS011;5894;42.768;23.404;2023-11-18T07:30:54;1.10;;;1.00;;
11675;SDS011;5894;42.768;23.404;2023-11-18T07:33:23;1.30;;;1.20;;
11675;SDS011;5894;42.768;23.404;2023-11-18T07:35:52;1.43;;;1.20;;
11675;SDS011;5894;42.768;23.404;2023-11-18T07:38:20;1.73;;;1.47;;
11675;SDS011;5894;42.768;23.404;2023-11-18T07:40:47;1.10;;;1.00;;
11675;SDS011;5894;42.768;23.404;2023-11-18T07:43:14;1.30;;;1.00;;
11675;SDS011;5894;42.768;23.404;2023-11-18T07:45:41;1.00;;;1.00;;
11675;SDS011;5894;42.768;23.404;2023-11-18T07:48:08;0.70;;;0.70;;
11675;SDS011;5894;42.768;23.404;2023-11-18T07:50:37;1.20;;;1.10;;
11675;SDS011;5894;42.768;23.404;2023-11-18T07:53:07;1.20;;;1.10;;
11675;SDS011;5894;42.768;23.404;2023-11-18T07:55:35;2.50;;;1.30;;
11675;SDS011;5894;42.768;23.404;2023-11-18T07:58:04;1.30;;;1.20;;
11675;SDS011;5894;42.768;23.404;2023-11-18T08:00:36;1.30;;;1.20;;
11675;SDS011;5894;42.768;23.404;2023-11-18T08:03:04;0.97;;;0.93;;
11675;SDS011;5894;42.768;23.404;2023-11-18T08:05:34;2.03;;;0.93;;
11675;SDS011;5894;42.768;23.404;2023-11-18T08:08:01;1.00;;;0.90;;
11675;SDS011;5894;42.768;23.404;2023-11-18T08:10:30;3.40;;;2.70;;
11675;SDS011;5894;42.768;23.404;2023-11-18T08:12:58;4.73;;;3.30;;
11675;SDS011;5894;42.768;23.404;2023-11-18T08:15:25;2.60;;;1.70;;
11675;SDS011;5894;42.768;23.404;2023-11-18T08:17:54;1.60;;;1.07;;
11675;SDS011;5894;42.768;23.404;2023-11-18T08:20:21;2.63;;;1.10;;
11675;SDS011;5894;42.768;23.404;2023-11-18T08:22:50;1.30;;;1.17;;
11675;SDS011;5894;42.768;23.404;2023-11-18T08:25:18;3.03;;;1.30;;
11675;SDS011;5894;42.768;23.404;2023-11-18T08:27:48;1.20;;;1.10;;
11675;SDS011;5894;42.768;23.404;2023-11-18T08:30:16;3.00;;;1.10;;
11675;SDS011;5894;42.768;23.404;2023-11-18T08:32:46;3.63;;;1.10;;
11675;SDS011;5894;42.768;23.404;2023-11-18T08:35:14;1.30;;;1.20;;
11675;SDS011;5894;42.768;23.404;2023-11-18T08:37:41;1.37;;;1.20;;
11675;SDS011;5894;42.768;23.404;2023-11-18T08:40:09;2.77;;;1.40;;
11675;SDS011;5894;42.768;23.404;2023-11-18T08:42:41;1.27;;;0.90;;
11675;SDS011;5894;42.768;23.404;2023-11-18T08:45:15;1.40;;;1.23;;
11675;SDS011;5894;42.768;23.404;2023-11-18T08:47:44;1.63;;;1.30;;
11675;SDS011;5894;42.768;23.404;2023-11-18T08:50:12;0.90;;;0.90;;
11675;SDS011;5894;42.768;23.404;2023-11-18T08:52:39;1.80;;;1.20;;
11675;SDS011;5894;42.768;23.404;2023-11-18T08:55:09;1.70;;;1.20;;
11675;SDS011;5894;42.768;23.404;2023-11-18T08:57:44;3.47;;;1.30;;
11675;SDS011;5894;42.768;23.404;2023-11-18T09:00:35;1.47;;;1.33;;
11675;SDS011;5894;42.768;23.404;2023-11-18T09:03:18;1.50;;;1.40;;
11675;SDS011;5894;42.768;23.404;2023-11-18T09:05:54;1.30;;;1.20;;
11675;SDS011;5894;42.768;23.404;2023-11-18T09:08:30;1.77;;;1.33;;
11675;SDS011;5894;42.768;23.404;2023-11-18T09:11:00;2.80;;;1.10;;
11675;SDS011;5894;42.768;23.404;2023-11-18T09:13:30;1.27;;;1.10;;
11675;SDS011;5894;42.768;23.404;2023-11-18T09:16:02;1.20;;;1.10;;
11675;SDS011;5894;42.768;23.404;2023-11-18T09:18:33;1.40;;;1.30;;
11675;SDS011;5894;42.768;23.404;2023-11-18T09:21:01;1.17;;;1.10;;
11675;SDS011;5894;42.768;23.404;2023-11-18T09:23:30;1.20;;;1.10;;
11675;SDS011;5894;42.768;23.404;2023-11-18T09:25:59;1.20;;;1.10;;
11675;SDS011;5894;42.768;23.404;2023-11-18T09:28:28;1.10;;;1.00;;
11675;SDS011;5894;42.768;23.404;2023-11-18T09:30:55;1.17;;;1.07;;
11675;SDS011;5894;42.768;23.404;2023-11-18T09:33:25;1.37;;;1.00;;
11675;SDS011;5894;42.768;23.404;2023-11-18T09:35:57;3.03;;;1.20;;
11675;SDS011;5894;42.768;23.404;2023-11-18T09:38:28;1.33;;;1.10;;
11675;SDS011;5894;42.768;23.404;2023-11-18T09:40:56;1.30;;;1.20;;
11675;SDS011;5894;42.768;23.404;2023-11-18T09:43:28;1.20;;;1.10;;
11675;SDS011;5894;42.768;23.404;2023-11-18T09:46:01;1.53;;;1.10;;
11675;SDS011;5894;42.768;23.404;2023-11-18T09:48:35;1.30;;;1.20;;
11675;SDS011;5894;42.768;23.404;2023-11-18T09:51:06;1.20;;;1.10;;
11675;SDS011;5894;42.768;23.404;2023-11-18T09:53:35;1.40;;;1.30;;
11675;SDS011;5894;42.768;23.404;2023-11-18T09:56:07;1.60;;;1.50;;
11675;SDS011;5894;42.768;23.404;2023-11-18T09:58:45;1.40;;;1.30;;
11675;SDS011;5894;42.768;23.404;2023-11-18T10:01:22;1.60;;;1.30;;
11675;SDS011;5894;42.768;23.404;2023-11-18T10:03:54;1.50;;;1.30;;
11675;SDS011;5894;42.768;23.404;2023-11-18T10:06:23;1.53;;;1.37;;
11675;SDS011;5894;42.768;23.404;2023-11-18T10:08:53;1.23;;;1.13;;
11675;SDS011;5894;42.768;23.404;2023-11-18T10:11:21;1.33;;;1.10;;
11675;SDS011;5894;42.768;23.404;2023-11-18T10:13:49;1.40;;;1.20;;
11675;SDS011;5894;42.768;23.404;2023-11-18T10:16:15;1.40;;;1.30;;
11675;SDS011;5894;42.768;23.404;2023-11-18T10:18:43;1.30;;;1.20;;
11675;SDS011;5894;42.768;23.404;2023-11-18T10:21:15;1.40;;;1.30;;
11675;SDS011;5894;42.768;23.404;2023-11-18T10:23:58;1.67;;;1.50;;
11675;SDS011;5894;42.768;23.404;2023-11-18T10:26:27;1.53;;;1.43;;
11675;SDS011;5894;42.768;23.404;2023-11-18T10:28:55;1.40;;;1.30;;
11675;SDS011;5894;42.768;23.404;2023-11-18T10:31:33;1.47;;;1.30;;
11675;SDS011;5894;42.768;23.404;2023-11-18T10:34:01;4.20;;;1.60;;
11675;SDS011;5894;42.768;23.404;2023-11-18T10:36:30;1.47;;;1.37;;
11675;SDS011;5894;42.768;23.404;2023-11-18T10:38:58;2.57;;;1.37;;
11675;SDS011;5894;42.768;23.404;2023-11-18T10:41:39;1.70;;;1.20;;
11675;SDS011;5894;42.768;23.404;2023-11-18T10:44:08;1.17;;;1.17;;
11675;SDS011;5894;42.768;23.404;2023-11-18T10:46:39;1.33;;;1.23;;
11675;SDS011;5894;42.768;23.404;2023-11-18T10:49:07;1.53;;;1.20;;
11675;SDS011;5894;42.768;23.404;2023-11-18T10:51:36;1.30;;;1.20;;
11675;SDS011;5894;42.768;23.404;2023-11-18T10:54:06;2.23;;;1.20;;
11675;SDS011;5894;42.768;23.404;2023-11-18T10:56:45;1.20;;;1.10;;
11675;SDS011;5894;42.768;23.404;2023-11-18T10:59:13;3.37;;;1.37;;
11675;SDS011;5894;42.768;23.404;2023-11-18T11:01:41;4.53;;;1.40;;
11675;SDS011;5894;42.768;23.404;2023-11-18T11:04:10;1.40;;;1.30;;
11675;SDS011;5894;42.768;23.404;2023-11-18T11:06:44;2.80;;;1.30;;
11675;SDS011;5894;42.768;23.404;2023-11-18T11:09:17;2.67;;;1.40;;
11675;SDS011;5894;42.768;23.404;2023-11-18T11:11:46;1.40;;;1.30;;
11675;SDS011;5894;42.768;23.404;2023-11-18T11:14:16;2.77;;;1.40;;
11675;SDS011;5894;42.768;23.404;2023-11-18T11:16:47;1.40;;;1.30;;
11675;SDS011;5894;42.768;23.404;2023-11-18T11:19:24;1.50;;;1.40;;
11675;SDS011;5894;42.768;23.404;2023-11-18T11:22:01;1.30;;;1.20;;
11675;SDS011;5894;42.768;23.404;2023-11-18T11:24:37;2.00;;;1.20;;
11675;SDS011;5894;42.768;23.404;2023-11-18T11:27:17;1.97;;;1.20;;
11675;SDS011;5894;42.768;23.404;2023-11-18T11:29:56;1.43;;;1.33;;
11675;SDS011;5894;42.768;23.404;2023-11-18T11:32:35;1.73;;;1.20;;
11675;SDS011;5894;42.768;23.404;2023-11-18T11:35:14;1.60;;;1.30;;
11675;SDS011;5894;42.768;23.404;2023-11-18T11:37:55;1.40;;;1.30;;
11675;SDS011;5894;42.768;23.404;2023-11-18T11:40:29;2.63;;;1.30;;
11675;SDS011;5894;42.768;23.404;2023-11-18T11:42:57;1.50;;;1.30;;
11675;SDS011;5894;42.768;23.404;2023-11-18T11:45:30;1.50;;;1.40;;
11675;SDS011;5894;42.768;23.404;2023-11-18T11:47:57;1.30;;;1.20;;
11675;SDS011;5894;42.768;23.404;2023-11-18T11:50:45;1.23;;;1.10;;
11675;SDS011;5894;42.768;23.404;2023-11-18T11:53:24;1.70;;;1.30;;
11675;SDS011;5894;42.768;23.404;2023-11-18T11:55:57;1.40;;;1.30;;
11675;SDS011;5894;42.768;23.404;2023-11-18T11:58:31;2.03;;;1.33;;
11675;SDS011;5894;42.768;23.404;2023-11-18T12:01:02;1.80;;;1.30;;
11675;SDS011;5894;42.768;23.404;2023-11-18T12:03:43;2.57;;;1.30;;
11675;SDS011;5894;42.768;23.404;2023-11-18T12:06:13;1.33;;;1.10;;
11675;SDS011;5894;42.768;23.404;2023-11-18T12:08:50;1.40;;;1.30;;
11675;SDS011;5894;42.768;23.404;2023-11-18T12:11:18;1.30;;;1.20;;
11675;SDS011;5894;42.768;23.404;2023-11-18T12:14:00;1.80;;;1.20;;
11675;SDS011;5894;42.768;23.404;2023-11-18T12:19:36;1.90;;;1.70;;
11675;SDS011;5894;42.768;23.404;2023-11-18T12:22:12;1.60;;;1.50;;
11675;SDS011;5894;42.768;23.404;2023-11-18T12:24:45;1.50;;;1.40;;
11675;SDS011;5894;42.768;23.404;2023-11-18T12:27:43;1.70;;;1.60;;
11675;SDS011;5894;42.768;23.404;2023-11-18T12:33:17;3.30;;;1.80;;
11675;SDS011;5894;42.768;23.404;2023-11-18T12:42:07;1.40;;;1.30;;
11675;SDS011;5894;42.768;23.404;2023-11-18T12:44:48;1.30;;;1.20;;
11675;SDS011;5894;42.768;23.404;2023-11-18T12:47:39;1.47;;;1.37;;
11675;SDS011;5894;42.768;23.404;2023-11-18T12:50:10;1.80;;;1.50;;
11675;SDS011;5894;42.768;23.404;2023-11-18T12:52:49;1.73;;;1.60;;
11675;SDS011;5894;42.768;23.404;2023-11-18T12:55:16;2.37;;;1.43;;
11675;SDS011;5894;42.768;23.404;2023-11-18T12:57:45;1.67;;;1.40;;
11675;SDS011;5894;42.768;23.404;2023-11-18T13:00:15;2.33;;;1.57;;
11675;SDS011;5894;42.768;23.404;2023-11-18T13:02:52;3.97;;;1.40;;
11675;SDS011;5894;42.768;23.404;2023-11-18T13:05:19;2.30;;;1.70;;
11675;SDS011;5894;42.768;23.404;2023-11-18T13:07:46;1.60;;;1.40;;
11675;SDS011;5894;42.768;23.404;2023-11-18T13:10:14;1.90;;;1.63;;
11675;SDS011;5894;42.768;23.404;2023-11-18T13:12:41;2.10;;;1.80;;
11675;SDS011;5894;42.768;23.404;2023-11-18T13:15:10;2.27;;;1.80;;
11675;SDS011;5894;42.768;23.404;2023-11-18T13:17:39;1.60;;;1.50;;
11675;SDS011;5894;42.768;23.404;2023-11-18T13:23:01;2.13;;;1.83;;
11675;SDS011;5894;42.768;23.404;2023-11-18T13:25:34;1.70;;;1.60;;
11675;SDS011;5894;42.768;23.404;2023-11-18T13:28:04;1.80;;;1.70;;
11675;SDS011;5894;42.768;23.404;2023-11-18T13:30:32;1.90;;;1.80;;
11675;SDS011;5894;42.768;23.404;2023-11-18T13:33:01;2.17;;;1.97;;
11675;SDS011;5894;42.768;23.404;2023-11-18T13:35:30;2.20;;;2.00;;
11675;SDS011;5894;42.768;23.404;2023-11-18T13:37:57;2.20;;;2.00;;
11675;SDS011;5894;42.768;23.404;2023-11-18T13:40:24;4.87;;;2.03;;
11675;SDS011;5894;42.768;23.404;2023-11-18T13:43:01;2.40;;;2.03;;
11675;SDS011;5894;42.768;23.404;2023-11-18T13:45:30;2.80;;;2.40;;
11675;SDS011;5894;42.768;23.404;2023-11-18T13:47:59;2.93;;;2.40;;
11675;SDS011;5894;42.768;23.404;2023-11-18T13:50:31;3.07;;;2.30;;
11675;SDS011;5894;42.768;23.404;2023-11-18T13:53:00;2.50;;;2.20;;
11675;SDS011;5894;42.768;23.404;2023-11-18T13:55:27;3.33;;;2.30;;
11675;SDS011;5894;42.768;23.404;2023-11-18T13:57:57;5.47;;;3.33;;
11675;SDS011;5894;42.768;23.404;2023-11-18T14:00:24;2.30;;;2.10;;
11675;SDS011;5894;42.768;23.404;2023-11-18T14:02:54;2.63;;;2.37;;
11675;SDS011;5894;42.768;23.404;2023-11-18T14:05:24;2.60;;;2.40;;
11675;SDS011;5894;42.768;23.404;2023-11-18T14:07:51;2.90;;;2.50;;
11675;SDS011;5894;42.768;23.404;2023-11-18T14:10:21;3.07;;;2.10;;
11675;SDS011;5894;42.768;23.404;2023-11-18T14:13:00;2.77;;;2.47;;
11675;SDS011;5894;42.768;23.404;2023-11-18T14:15:31;2.40;;;2.20;;
11675;SDS011;5894;42.768;23.404;2023-11-18T14:18:00;2.80;;;2.37;;
11675;SDS011;5894;42.768;23.404;2023-11-18T14:20:29;4.93;;;2.80;;
11675;SDS011;5894;42.768;23.404;2023-11-18T14:22:56;2.80;;;2.33;;
11675;SDS011;5894;42.768;23.404;2023-11-18T14:25:24;3.70;;;2.90;;
11675;SDS011;5894;42.768;23.404;2023-11-18T14:27:52;3.50;;;2.90;;
11675;SDS011;5894;42.768;23.404;2023-11-18T14:30:20;3.43;;;2.87;;
11675;SDS011;5894;42.768;23.404;2023-11-18T14:32:49;4.63;;;2.97;;
11675;SDS011;5894;42.768;23.404;2023-11-18T14:35:16;3.03;;;2.73;;
11675;SDS011;5894;42.768;23.404;2023-11-18T14:37:45;2.90;;;2.60;;
11675;SDS011;5894;42.768;23.404;2023-11-18T14:40:13;2.80;;;2.60;;
11675;SDS011;5894;42.768;23.404;2023-11-18T14:42:41;2.93;;;2.63;;
11675;SDS011;5894;42.768;23.404;2023-11-18T14:45:10;4.20;;;2.90;;
11675;SDS011;5894;42.768;23.404;2023-11-18T14:47:39;3.87;;;3.40;;
11675;SDS011;5894;42.768;23.404;2023-11-18T14:50:10;3.93;;;3.20;;
11675;SDS011;5894;42.768;23.404;2023-11-18T14:52:43;4.50;;;3.20;;
11675;SDS011;5894;42.768;23.404;2023-11-18T14:55:14;3.43;;;2.93;;
11675;SDS011;5894;42.768;23.404;2023-11-18T14:57:42;4.70;;;3.80;;
11675;SDS011;5894;42.768;23.404;2023-11-18T15:00:11;7.17;;;4.07;;
11675;SDS011;5894;42.768;23.404;2023-11-18T15:02:45;3.80;;;3.30;;
11675;SDS011;5894;42.768;23.404;2023-11-18T15:05:13;4.43;;;3.57;;
11675;SDS011;5894;42.768;23.404;2023-11-18T15:07:45;3.10;;;2.80;;
11675;SDS011;5894;42.768;23.404;2023-11-18T15:10:14;4.03;;;3.00;;
11675;SDS011;5894;42.768;23.404;2023-11-18T15:12:45;3.43;;;3.10;;
11675;SDS011;5894;42.768;23.404;2023-11-18T15:15:12;5.23;;;3.07;;
11675;SDS011;5894;42.768;23.404;2023-11-18T15:17:46;6.23;;;3.97;;